Jefferson, Iowa
Current Conditions -  °F | °C
As of 7:15 AM on Sunday 23 Nov 2014 (Local Time) from KPRO Reporting Station
Overcast Overcast  
Wind Chill: 51°   Ceiling: 500
Heat Index: 51°   Visibility: 7mi
Dew Point: 50°   Wind: 8mph
Humidity: 97%   Direction: 170°S
Pressure: 29.51"   Gusts: NA
Location:  42.02°N, 94.38°W
Report Text: KPRO 231315Z AUTO 17007KT 7SM OVC005 11/10 A2951 RMK AO2 T01060102
Loading
Personal Weather Stations






























Interactive Weather Map New forecast layout! Learn more

10-Day Weather Forecast

Advertisements
Track Severe Weather on mobile